createdAt,value
2017-10-13T00:00:54.587Z,2.12
2017-10-13T00:03:22.043Z,2.25
2017-10-13T00:05:49.508Z,2.33
2017-10-13T00:08:16.945Z,2.20
2017-10-13T00:10:44.402Z,2.58
2017-10-13T00:13:11.871Z,1.60
2017-10-13T00:15:39.310Z,2.25
2017-10-13T00:18:07.529Z,2.20
2017-10-13T00:20:35.824Z,3.03
2017-10-13T00:23:03.266Z,2.70
2017-10-13T00:25:30.716Z,2.15
2017-10-13T00:27:58.172Z,2.50
2017-10-13T00:30:25.620Z,2.67
2017-10-13T00:32:53.066Z,2.62
2017-10-13T00:35:20.501Z,2.45
2017-10-13T00:37:47.963Z,2.17
2017-10-13T00:40:15.408Z,1.92
2017-10-13T00:42:42.868Z,2.40
2017-10-13T00:45:10.294Z,2.75
2017-10-13T00:47:37.742Z,2.00
2017-10-13T00:50:05.177Z,1.90
2017-10-13T00:52:32.622Z,2.37
2017-10-13T00:55:00.077Z,2.45
2017-10-13T00:57:27.532Z,2.50
2017-10-13T00:59:54.979Z,3.30
2017-10-13T01:02:22.425Z,2.35
2017-10-13T01:04:49.886Z,2.62
2017-10-13T01:07:18.099Z,2.45
2017-10-13T01:09:45.551Z,2.47
2017-10-13T01:12:13.006Z,2.20
2017-10-13T01:14:40.456Z,2.70
2017-10-13T01:17:07.908Z,2.95
2017-10-13T01:19:35.358Z,2.75
2017-10-13T01:22:02.812Z,3.17
2017-10-13T01:24:30.972Z,2.50
2017-10-13T01:26:59.188Z,3.55
2017-10-13T01:29:26.629Z,3.30
2017-10-13T01:31:54.085Z,3.05
2017-10-13T01:34:21.531Z,1.90
2017-10-13T01:36:48.986Z,2.70
2017-10-13T01:39:16.425Z,2.80
2017-10-13T01:41:43.878Z,2.90
2017-10-13T01:44:12.082Z,2.45
2017-10-13T01:46:39.533Z,3.22
2017-10-13T01:49:06.995Z,2.70
2017-10-13T01:51:34.446Z,2.65
2017-10-13T01:54:01.891Z,3.00
2017-10-13T01:56:29.338Z,3.15
2017-10-13T01:58:56.786Z,3.05
2017-10-13T02:01:24.994Z,3.22
2017-10-13T02:03:52.444Z,2.90
2017-10-13T02:06:19.890Z,3.33
2017-10-13T02:08:47.338Z,3.33
2017-10-13T02:11:15.538Z,2.95
2017-10-13T02:13:42.981Z,2.80
2017-10-13T02:16:10.424Z,3.62
2017-10-13T02:18:37.870Z,3.65
2017-10-13T02:21:05.323Z,4.03
2017-10-13T02:23:33.538Z,3.35
2017-10-13T02:26:00.987Z,3.40
2017-10-13T02:28:28.430Z,3.55
2017-10-13T02:30:56.635Z,2.67
2017-10-13T02:33:24.082Z,2.67
2017-10-13T02:35:51.536Z,2.97
2017-10-13T02:38:18.981Z,3.80
2017-10-13T02:40:46.433Z,3.58
2017-10-13T02:43:13.882Z,4.85
2017-10-13T02:45:41.323Z,3.90
2017-10-13T02:48:09.545Z,4.32
2017-10-13T02:50:36.994Z,4.40
2017-10-13T02:53:04.455Z,3.95
2017-10-13T02:55:31.911Z,4.82
2017-10-13T02:57:59.368Z,4.15
2017-10-13T03:00:26.814Z,3.87
2017-10-13T03:02:54.266Z,4.75
2017-10-13T03:05:21.718Z,5.20
2017-10-13T03:07:49.161Z,4.75
2017-10-13T03:10:16.605Z,4.85
2017-10-13T03:12:44.828Z,4.50
2017-10-13T03:15:12.294Z,5.82
2017-10-13T03:17:39.793Z,6.60
2017-10-13T03:20:07.273Z,7.37
2017-10-13T03:22:34.717Z,5.78
2017-10-13T03:25:02.982Z,7.62
2017-10-13T03:27:31.234Z,6.93
2017-10-13T03:29:58.689Z,6.53
2017-10-13T03:32:26.578Z,7.05
2017-10-13T03:34:54.042Z,6.65
2017-10-13T03:37:22.266Z,6.18
2017-10-13T03:39:49.746Z,6.57
2017-10-13T03:42:17.217Z,9.00
2017-10-13T03:44:44.679Z,6.90
2017-10-13T03:47:12.145Z,7.32
2017-10-13T03:49:40.373Z,6.60
2017-10-13T03:52:07.850Z,6.47
2017-10-13T03:54:35.335Z,9.00
2017-10-13T03:57:03.043Z,7.97
2017-10-13T03:59:30.523Z,8.00
2017-10-13T04:01:58.010Z,7.43
2017-10-13T04:04:25.481Z,8.00
2017-10-13T04:06:52.935Z,8.27
2017-10-13T04:09:21.167Z,8.45
2017-10-13T04:11:48.631Z,8.35
2017-10-13T04:14:16.111Z,7.75
2017-10-13T04:16:43.572Z,8.80
2017-10-13T04:19:11.815Z,8.35
2017-10-13T04:21:39.283Z,10.10
2017-10-13T04:24:06.753Z,8.88
2017-10-13T04:26:34.322Z,10.23
2017-10-13T04:29:01.875Z,8.55
2017-10-13T04:31:29.336Z,9.25
2017-10-13T04:33:56.799Z,9.43
2017-10-13T04:36:25.046Z,8.52
2017-10-13T04:38:52.514Z,10.60
2017-10-13T04:41:20.005Z,10.40
2017-10-13T04:43:47.453Z,10.80
2017-10-13T04:46:14.926Z,9.80
2017-10-13T04:48:42.378Z,10.85
2017-10-13T04:51:09.821Z,9.30
2017-10-13T04:53:37.278Z,9.45
2017-10-13T04:56:04.734Z,8.93
2017-10-13T04:58:32.195Z,9.25
2017-10-13T05:00:59.647Z,9.02
2017-10-13T05:03:27.117Z,10.98
2017-10-13T05:05:54.565Z,8.75
2017-10-13T05:08:22.053Z,10.70
2017-10-13T05:10:49.526Z,8.63
2017-10-13T05:13:17.098Z,9.80
2017-10-13T05:15:44.551Z,8.52
2017-10-13T05:18:12.034Z,8.93
2017-10-13T05:20:39.482Z,8.68
2017-10-13T05:23:06.970Z,9.45
2017-10-13T05:25:34.430Z,10.55
2017-10-13T05:28:01.972Z,8.50
2017-10-13T05:30:29.437Z,9.38
2017-10-13T05:32:56.901Z,10.15
2017-10-13T05:35:24.370Z,9.93
2017-10-13T05:37:51.853Z,9.50
2017-10-13T05:40:19.306Z,10.00
2017-10-13T05:42:46.777Z,9.90
2017-10-13T05:45:14.266Z,10.07
2017-10-13T05:47:41.743Z,10.80
2017-10-13T05:50:09.203Z,10.55
2017-10-13T05:52:37.482Z,10.52
2017-10-13T05:55:04.954Z,10.35
2017-10-13T05:57:32.437Z,9.95
2017-10-13T05:59:59.930Z,11.65
2017-10-13T06:02:28.192Z,9.85
2017-10-13T06:04:55.658Z,9.38
2017-10-13T06:07:23.121Z,11.95
2017-10-13T06:09:51.366Z,10.35
2017-10-13T06:12:18.857Z,10.68
2017-10-13T06:14:46.886Z,12.27
2017-10-13T06:17:14.385Z,12.13
2017-10-13T06:19:41.872Z,12.98
2017-10-13T06:22:09.398Z,10.85
2017-10-13T06:24:38.305Z,12.40
2017-10-13T06:27:05.762Z,11.80
2017-10-13T06:29:33.210Z,12.52
2017-10-13T06:32:00.672Z,11.50
2017-10-13T06:34:28.191Z,11.45
2017-10-13T06:36:55.661Z,13.00
2017-10-13T06:39:23.153Z,11.35
2017-10-13T06:41:50.607Z,12.32
2017-10-13T06:44:18.122Z,11.15
2017-10-13T06:46:45.618Z,11.43
2017-10-13T06:49:13.155Z,11.88
2017-10-13T06:51:40.631Z,11.05
2017-10-13T06:54:08.152Z,11.85
2017-10-13T06:56:35.727Z,11.35
2017-10-13T06:59:04.107Z,10.32
2017-10-13T07:01:31.580Z,13.13
2017-10-13T07:03:59.066Z,11.38
2017-10-13T07:06:26.533Z,10.57
2017-10-13T07:08:53.986Z,10.70
2017-10-13T07:11:21.491Z,11.02
2017-10-13T07:13:48.962Z,11.50
2017-10-13T07:16:16.463Z,9.25
2017-10-13T07:18:43.929Z,9.55
2017-10-13T07:21:11.428Z,10.05
2017-10-13T07:23:38.899Z,9.88
2017-10-13T07:26:06.424Z,11.73
2017-10-13T07:28:34.417Z,9.48
2017-10-13T07:31:02.462Z,10.00
2017-10-13T07:33:29.928Z,10.00
2017-10-13T07:35:57.390Z,9.00
2017-10-13T07:38:24.846Z,9.35
2017-10-13T07:40:53.109Z,9.77
2017-10-13T07:43:20.587Z,9.35
2017-10-13T07:45:48.043Z,8.77
2017-10-13T07:48:16.270Z,8.98
2017-10-13T07:50:43.746Z,8.90
2017-10-13T07:53:11.212Z,8.52
2017-10-13T07:55:38.680Z,8.80
2017-10-13T07:58:06.143Z,8.35
2017-10-13T08:00:33.607Z,9.35
2017-10-13T08:03:01.084Z,9.07
2017-10-13T08:05:28.530Z,7.80
2017-10-13T08:07:56.014Z,8.75
2017-10-13T08:10:23.481Z,8.77
2017-10-13T08:12:50.962Z,9.85
2017-10-13T08:15:18.418Z,8.15
2017-10-13T08:17:45.879Z,10.40
2017-10-13T08:20:13.355Z,9.02
2017-10-13T08:22:40.812Z,8.57
2017-10-13T08:25:09.074Z,10.02
2017-10-13T08:27:36.538Z,10.13
2017-10-13T08:30:04.787Z,8.68
2017-10-13T08:32:32.266Z,9.25
2017-10-13T08:34:59.719Z,8.50
2017-10-13T08:37:27.186Z,8.45
2017-10-13T08:39:54.648Z,9.07
2017-10-13T08:42:22.886Z,9.98
2017-10-13T08:44:50.353Z,9.27
2017-10-13T08:47:17.814Z,8.18
2017-10-13T08:49:45.277Z,8.60
2017-10-13T08:52:12.736Z,9.65
2017-10-13T08:54:40.195Z,8.27
2017-10-13T08:57:07.654Z,9.30
2017-10-13T08:59:35.135Z,8.90
2017-10-13T09:02:03.378Z,10.30
2017-10-13T09:04:30.866Z,10.18
2017-10-13T09:06:59.118Z,9.82
2017-10-13T09:09:26.604Z,9.57
2017-10-13T09:11:54.091Z,9.77
2017-10-13T09:14:21.552Z,9.77
2017-10-13T09:16:49.032Z,10.07
2017-10-13T09:19:16.490Z,10.82
2017-10-13T09:21:49.615Z,9.70
2017-10-13T09:24:17.843Z,10.15
2017-10-13T09:26:45.332Z,11.77
2017-10-13T09:29:12.787Z,9.05
2017-10-13T09:31:42.026Z,10.95
2017-10-13T09:34:09.618Z,9.52
2017-10-13T09:36:37.095Z,10.57
2017-10-13T09:39:04.751Z,8.55
2017-10-13T09:41:32.267Z,10.70
2017-10-13T09:43:59.747Z,10.98
2017-10-13T09:46:27.215Z,9.68
2017-10-13T09:48:54.698Z,10.98
2017-10-13T09:51:22.157Z,10.27
2017-10-13T09:53:50.441Z,10.93
2017-10-13T09:56:18.672Z,10.57
2017-10-13T09:58:46.133Z,10.52
2017-10-13T10:01:13.613Z,12.40
2017-10-13T10:03:41.085Z,11.30
2017-10-13T10:06:09.323Z,11.27
2017-10-13T10:08:36.814Z,12.70
2017-10-13T10:11:04.286Z,13.65
2017-10-13T10:13:31.750Z,11.50
2017-10-13T10:15:59.202Z,13.88
2017-10-13T10:18:26.671Z,14.00
2017-10-13T10:20:54.136Z,14.20
2017-10-13T10:23:21.627Z,14.52
2017-10-13T10:25:49.090Z,15.30
2017-10-13T10:28:16.562Z,13.82
2017-10-13T10:30:44.806Z,15.10
2017-10-13T10:33:12.281Z,15.27
2017-10-13T10:35:39.743Z,14.00
2017-10-13T10:38:07.209Z,14.02
2017-10-13T10:40:34.663Z,13.02
2017-10-13T10:43:02.896Z,13.30
2017-10-13T10:45:30.386Z,12.80
2017-10-13T10:47:57.892Z,13.10
2017-10-13T10:50:25.344Z,11.27
2017-10-13T10:52:52.804Z,10.93
2017-10-13T10:55:20.295Z,10.80
2017-10-13T10:57:47.868Z,10.60
2017-10-13T11:00:15.326Z,8.90
2017-10-13T11:02:42.798Z,9.85
2017-10-13T11:05:10.264Z,10.35
2017-10-13T11:07:37.736Z,10.32
2017-10-13T11:10:05.225Z,9.05
2017-10-13T11:12:32.733Z,10.00
2017-10-13T11:15:00.229Z,9.70
2017-10-13T11:17:28.008Z,11.38
2017-10-13T11:19:55.509Z,11.43
2017-10-13T11:22:22.983Z,12.50
2017-10-13T11:24:50.470Z,9.52
2017-10-13T11:27:18.077Z,9.10
2017-10-13T11:29:45.771Z,9.55
2017-10-13T11:32:13.315Z,9.90
2017-10-13T11:34:41.115Z,9.32
2017-10-13T11:37:09.496Z,7.85
2017-10-13T11:39:37.123Z,8.45
2017-10-13T11:42:05.551Z,6.47
2017-10-13T11:44:33.062Z,8.70
2017-10-13T11:47:00.593Z,8.70
2017-10-13T11:49:28.084Z,8.93
2017-10-13T11:51:55.959Z,7.93
2017-10-13T11:54:23.462Z,5.97
2017-10-13T11:56:51.078Z,7.00
2017-10-13T11:59:18.658Z,7.20
2017-10-13T12:01:46.172Z,7.53
2017-10-13T12:04:14.430Z,6.50
2017-10-13T12:06:41.905Z,6.95
2017-10-13T12:09:10.133Z,6.82
2017-10-13T12:11:37.638Z,7.72
2017-10-13T12:14:05.104Z,7.95
2017-10-13T12:16:32.818Z,6.82
2017-10-13T12:19:00.602Z,7.00
2017-10-13T12:21:28.207Z,8.10
2017-10-13T12:23:55.778Z,7.28
2017-10-13T12:26:23.490Z,8.55
2017-10-13T12:28:51.193Z,7.25
2017-10-13T12:31:19.131Z,8.07
2017-10-13T12:33:46.617Z,8.05
2017-10-13T12:36:14.106Z,7.65
2017-10-13T12:38:41.584Z,8.02
2017-10-13T12:41:09.084Z,6.55
2017-10-13T12:43:36.884Z,6.95
2017-10-13T12:46:04.725Z,8.30
2017-10-13T12:48:32.265Z,7.72
2017-10-13T12:50:59.743Z,8.10
2017-10-13T12:53:27.222Z,8.68
2017-10-13T12:55:54.721Z,7.55
2017-10-13T12:58:22.424Z,7.30
2017-10-13T13:00:50.025Z,7.97
2017-10-13T13:03:17.506Z,7.80
2017-10-13T13:05:45.807Z,9.20
2017-10-13T13:08:13.367Z,7.62
2017-10-13T13:10:40.910Z,7.62
2017-10-13T13:13:08.396Z,7.35
2017-10-13T13:15:35.996Z,7.82
2017-10-13T13:18:03.584Z,7.47
2017-10-13T13:20:31.185Z,6.78
2017-10-13T13:22:58.760Z,7.40
2017-10-13T13:25:26.359Z,8.13
2017-10-13T13:27:53.862Z,7.12
2017-10-13T13:30:21.343Z,7.93
2017-10-13T13:32:48.796Z,7.10
2017-10-13T13:35:16.264Z,6.05
2017-10-13T13:37:43.784Z,9.35
2017-10-13T13:40:11.247Z,6.90
2017-10-13T13:42:38.726Z,7.60
2017-10-13T13:45:06.184Z,8.88
2017-10-13T13:47:33.647Z,7.32
2017-10-13T13:50:01.152Z,10.07
2017-10-13T13:52:28.636Z,8.90
2017-10-13T13:54:56.113Z,8.20
2017-10-13T13:57:23.591Z,8.07
2017-10-13T13:59:51.065Z,9.43
2017-10-13T14:02:18.546Z,7.80
2017-10-13T14:04:46.012Z,8.63
2017-10-13T14:07:13.506Z,9.40
2017-10-13T14:09:40.995Z,10.60
2017-10-13T14:12:08.836Z,9.85
2017-10-13T14:14:36.392Z,9.82
2017-10-13T14:17:03.866Z,10.48
2017-10-13T14:19:32.119Z,10.65
2017-10-13T14:21:59.610Z,8.95
2017-10-13T14:24:27.104Z,10.45
2017-10-13T14:26:54.580Z,12.02
2017-10-13T14:29:22.045Z,10.70
2017-10-13T14:31:49.523Z,9.50
2017-10-13T14:34:17.842Z,9.15
2017-10-13T14:36:45.318Z,9.50
2017-10-13T14:39:12.820Z,10.88
2017-10-13T14:41:40.291Z,10.30
2017-10-13T14:44:07.865Z,9.32
2017-10-13T14:46:35.344Z,9.02
2017-10-13T14:49:02.827Z,10.25
2017-10-13T14:51:30.280Z,9.07
2017-10-13T14:53:57.754Z,10.00
2017-10-13T14:56:25.227Z,9.13
2017-10-13T14:58:53.447Z,7.50
2017-10-13T15:01:20.924Z,8.30
2017-10-13T15:03:48.442Z,7.90
2017-10-13T15:06:15.917Z,9.57
2017-10-13T15:08:43.391Z,9.70
2017-10-13T15:11:10.842Z,9.25
2017-10-13T15:13:38.358Z,8.13
2017-10-13T15:16:05.847Z,9.25
2017-10-13T15:18:33.318Z,8.38
2017-10-13T15:21:01.214Z,8.65
2017-10-13T15:23:28.850Z,8.60
2017-10-13T15:25:56.446Z,8.35
2017-10-13T15:28:30.359Z,7.30
2017-10-13T15:31:01.524Z,9.10
2017-10-13T15:33:34.545Z,9.05
2017-10-13T15:36:07.698Z,7.72
2017-10-13T15:38:40.731Z,7.37
2017-10-13T15:41:13.919Z,7.47
2017-10-13T15:43:46.997Z,8.48
2017-10-13T15:46:20.152Z,7.90
2017-10-13T15:48:47.631Z,7.87
2017-10-13T15:51:20.798Z,7.93
2017-10-13T15:53:48.291Z,7.62
2017-10-13T15:56:15.772Z,7.43
2017-10-13T15:58:43.262Z,7.62
2017-10-13T16:01:11.507Z,6.95
2017-10-13T16:03:38.983Z,7.68
2017-10-13T16:06:07.210Z,9.40
2017-10-13T16:08:34.684Z,7.75
2017-10-13T16:11:02.148Z,8.40
2017-10-13T16:13:29.632Z,8.02
2017-10-13T16:15:57.881Z,8.10
2017-10-13T16:18:25.342Z,8.25
2017-10-13T16:20:52.819Z,8.85
2017-10-13T16:23:21.070Z,7.75
2017-10-13T16:25:48.579Z,7.95
2017-10-13T16:28:16.082Z,7.95
2017-10-13T16:30:43.697Z,8.68
2017-10-13T16:33:11.230Z,8.98
2017-10-13T16:35:39.470Z,6.80
2017-10-13T16:38:06.931Z,7.12
2017-10-13T16:40:35.256Z,7.32
2017-10-13T16:43:02.791Z,7.30
2017-10-13T16:45:30.284Z,8.65
2017-10-13T16:47:57.810Z,7.90
2017-10-13T16:50:25.360Z,8.02
2017-10-13T16:52:54.368Z,8.15
2017-10-13T16:55:21.892Z,8.70
2017-10-13T16:57:49.449Z,8.38
2017-10-13T17:00:16.936Z,9.25
2017-10-13T17:02:44.509Z,8.80
2017-10-13T17:05:12.484Z,7.03
2017-10-13T17:07:40.198Z,8.55
2017-10-13T17:10:07.716Z,7.95
2017-10-13T17:12:35.262Z,8.60
2017-10-13T17:15:02.724Z,7.28
2017-10-13T17:17:30.219Z,8.25
2017-10-13T17:19:57.690Z,8.32
2017-10-13T17:22:25.191Z,8.15
2017-10-13T17:24:52.659Z,9.07
2017-10-13T17:27:20.103Z,9.63
2017-10-13T17:29:47.562Z,8.23
2017-10-13T17:32:15.019Z,7.90
2017-10-13T17:34:43.142Z,8.80
2017-10-13T17:37:10.658Z,8.38
2017-10-13T17:39:38.191Z,8.57
2017-10-13T17:42:05.658Z,8.73
2017-10-13T17:44:33.119Z,8.35
2017-10-13T17:47:00.893Z,7.65
2017-10-13T17:49:28.348Z,10.13
2017-10-13T17:51:55.815Z,9.57
2017-10-13T17:54:23.377Z,11.05
2017-10-13T17:56:50.922Z,9.45
2017-10-13T17:59:18.566Z,10.73
2017-10-13T18:01:46.102Z,11.12
2017-10-13T18:04:13.594Z,9.85
2017-10-13T18:06:41.147Z,10.63
2017-10-13T18:09:08.695Z,10.05
2017-10-13T18:11:37.178Z,9.77
2017-10-13T18:14:04.762Z,9.38
2017-10-13T18:16:43.813Z,9.65
2017-10-13T18:19:12.297Z,9.30
2017-10-13T18:24:31.684Z,10.38
2017-10-13T18:26:59.267Z,10.50
2017-10-13T18:29:27.745Z,9.40
2017-10-13T18:32:02.367Z,9.57
2017-10-13T18:34:30.242Z,9.13
2017-10-13T18:37:05.563Z,9.70
2017-10-13T18:39:33.391Z,10.30
2017-10-13T18:42:02.902Z,10.70
2017-10-13T18:44:31.677Z,9.60
2017-10-13T18:46:59.243Z,9.73
2017-10-13T18:49:28.897Z,9.20
2017-10-13T18:51:57.072Z,10.65
2017-10-13T18:54:24.853Z,10.38
2017-10-13T18:56:52.588Z,9.32
2017-10-13T18:59:20.944Z,8.77
2017-10-13T19:01:48.653Z,9.75
2017-10-13T19:04:16.435Z,10.48
2017-10-13T19:06:45.315Z,9.50
2017-10-13T19:09:12.849Z,9.48
2017-10-13T19:11:40.383Z,9.00
2017-10-13T19:14:07.901Z,12.00
2017-10-13T19:16:36.163Z,10.10
2017-10-13T19:19:04.381Z,11.68
2017-10-13T19:21:31.945Z,12.20
2017-10-13T19:23:59.534Z,11.82
2017-10-13T19:26:34.432Z,12.57
2017-10-13T19:29:01.981Z,12.93
2017-10-13T19:31:29.919Z,13.20
2017-10-13T19:33:58.452Z,12.00
2017-10-13T19:36:26.043Z,11.50
2017-10-13T19:38:53.736Z,13.02
2017-10-13T19:41:23.367Z,13.45
2017-10-13T19:43:51.541Z,12.95
2017-10-13T19:46:19.181Z,14.32
2017-10-13T19:48:49.360Z,13.70
2017-10-13T19:51:18.177Z,14.30
2017-10-13T19:53:45.774Z,14.02
2017-10-13T19:56:14.088Z,13.07
2017-10-13T19:58:41.747Z,14.75
2017-10-13T20:01:09.459Z,13.95
2017-10-13T20:03:37.016Z,13.18
2017-10-13T20:06:05.898Z,14.70
2017-10-13T20:08:33.538Z,15.82
2017-10-13T20:11:01.131Z,16.15
2017-10-13T20:13:30.254Z,16.87
2017-10-13T20:15:57.797Z,15.13
2017-10-13T20:18:25.355Z,18.58
2017-10-13T20:20:52.899Z,16.20
2017-10-13T20:23:20.379Z,14.87
2017-10-13T20:25:48.831Z,15.32
2017-10-13T20:28:16.399Z,15.55
2017-10-13T20:30:43.929Z,16.67
2017-10-13T20:33:11.407Z,16.83
2017-10-13T20:35:40.887Z,17.12
2017-10-13T20:38:08.367Z,15.55
2017-10-13T20:40:35.932Z,18.73
2017-10-13T20:43:03.474Z,15.32
2017-10-13T20:45:31.144Z,17.75
2017-10-13T20:47:58.693Z,17.02
2017-10-13T20:50:27.903Z,16.27
2017-10-13T20:52:55.374Z,20.15
2017-10-13T20:55:22.923Z,17.60
2017-10-13T20:57:50.487Z,16.12
2017-10-13T21:00:18.048Z,20.33
2017-10-13T21:02:45.597Z,17.62
2017-10-13T21:05:13.548Z,19.37
2017-10-13T21:07:41.315Z,19.23
2017-10-13T21:10:08.942Z,18.67
2017-10-13T21:12:36.687Z,20.27
2017-10-13T21:15:04.375Z,17.77
2017-10-13T21:17:32.199Z,19.52
2017-10-13T21:19:59.830Z,19.50
2017-10-13T21:22:27.318Z,19.42
2017-10-13T21:24:55.074Z,20.95
2017-10-13T21:27:22.885Z,19.30
2017-10-13T21:29:50.661Z,20.62
2017-10-13T21:32:18.137Z,22.15
2017-10-13T21:34:46.451Z,19.55
2017-10-13T21:37:14.144Z,20.15
2017-10-13T21:39:41.763Z,19.42
2017-10-13T21:42:09.330Z,20.50
2017-10-13T21:44:37.114Z,20.02
2017-10-13T21:47:04.975Z,20.62
2017-10-13T21:49:32.601Z,23.83
2017-10-13T21:52:00.590Z,21.42
2017-10-13T21:54:29.049Z,22.20
2017-10-13T21:56:56.699Z,20.52
2017-10-13T21:59:25.167Z,20.88
2017-10-13T22:01:52.691Z,23.12
2017-10-13T22:04:20.179Z,22.90
2017-10-13T22:06:47.659Z,21.67
2017-10-13T22:09:15.889Z,21.17
2017-10-13T22:11:43.357Z,20.98
2017-10-13T22:14:10.826Z,22.33
2017-10-13T22:16:38.332Z,24.20
2017-10-13T22:19:05.820Z,22.48
2017-10-13T22:21:33.299Z,22.30
2017-10-13T22:24:00.758Z,22.35
2017-10-13T22:26:29.046Z,21.58
2017-10-13T22:28:56.555Z,22.30
2017-10-13T22:31:24.050Z,23.23
2017-10-13T22:33:51.553Z,21.12
2017-10-13T22:36:19.050Z,20.77
2017-10-13T22:38:46.566Z,22.52
2017-10-13T22:41:14.029Z,22.70
2017-10-13T22:43:41.541Z,22.73
2017-10-13T22:46:09.030Z,22.70
2017-10-13T22:48:36.592Z,23.73
2017-10-13T22:51:04.251Z,22.60
2017-10-13T22:53:31.775Z,22.92
2017-10-13T22:55:59.383Z,23.52
2017-10-13T22:58:26.902Z,21.87
2017-10-13T23:00:55.191Z,23.10
2017-10-13T23:03:22.679Z,22.42
2017-10-13T23:05:50.214Z,23.50
2017-10-13T23:08:17.731Z,22.87
2017-10-13T23:10:45.236Z,23.70
2017-10-13T23:13:12.703Z,22.70
2017-10-13T23:15:40.300Z,22.60
2017-10-13T23:18:07.802Z,24.25
2017-10-13T23:20:35.370Z,25.33
2017-10-13T23:23:02.927Z,24.08
2017-10-13T23:25:30.462Z,22.10
2017-10-13T23:27:58.003Z,24.48
2017-10-13T23:30:25.482Z,25.08
2017-10-13T23:32:52.954Z,24.20
2017-10-13T23:35:21.186Z,24.02
2017-10-13T23:37:48.658Z,21.50
2017-10-13T23:40:16.126Z,22.87
2017-10-13T23:42:44.351Z,22.55
2017-10-13T23:45:11.819Z,26.10
2017-10-13T23:47:39.289Z,24.80
2017-10-13T23:50:06.761Z,25.62
2017-10-13T23:52:34.232Z,26.12
2017-10-13T23:55:02.465Z,25.42
2017-10-13T23:57:29.923Z,24.40
2017-10-13T23:59:58.161Z,25.48
